createdAt,value
2018-05-25T00:01:23.896Z,17.00
2018-05-25T00:03:51.339Z,17.00
2018-05-25T00:06:18.752Z,16.90
2018-05-25T00:08:46.956Z,16.90
2018-05-25T00:11:14.446Z,16.80
2018-05-25T00:13:41.885Z,16.90
2018-05-25T00:16:09.328Z,16.80
2018-05-25T00:18:36.809Z,16.70
2018-05-25T00:21:04.257Z,16.70
2018-05-25T00:23:31.701Z,16.80
2018-05-25T00:25:59.181Z,16.70
2018-05-25T00:28:26.615Z,16.70
2018-05-25T00:30:54.070Z,16.70
2018-05-25T00:33:21.509Z,16.60
2018-05-25T00:35:48.949Z,16.60
2018-05-25T00:38:17.262Z,16.50
2018-05-25T00:40:44.688Z,16.40
2018-05-25T00:43:12.892Z,16.40
2018-05-25T00:45:40.371Z,16.40
2018-05-25T00:48:07.837Z,16.40
2018-05-25T00:50:35.274Z,16.40
2018-05-25T00:53:02.746Z,16.30
2018-05-25T00:55:41.612Z,16.30
2018-05-25T00:58:09.823Z,16.20
2018-05-25T01:00:37.241Z,16.20
2018-05-25T01:03:05.451Z,16.30
2018-05-25T01:05:32.883Z,16.20
2018-05-25T01:08:00.354Z,16.20
2018-05-25T01:10:27.778Z,16.20
2018-05-25T01:12:55.973Z,16.10
2018-05-25T01:15:23.467Z,16.00
2018-05-25T01:17:51.001Z,16.10
2018-05-25T01:20:18.411Z,16.10
2018-05-25T01:22:46.639Z,16.00
2018-05-25T01:25:15.032Z,16.00
2018-05-25T01:27:42.472Z,16.00
2018-05-25T01:30:09.937Z,15.90
2018-05-25T01:32:37.409Z,16.00
2018-05-25T01:35:04.865Z,16.00
2018-05-25T01:37:32.292Z,15.90
2018-05-25T01:39:59.743Z,15.90
2018-05-25T01:42:27.200Z,15.90
2018-05-25T01:44:54.628Z,15.80
2018-05-25T01:47:22.829Z,15.80
2018-05-25T01:49:50.261Z,15.70
2018-05-25T01:52:17.704Z,15.80
2018-05-25T01:54:45.911Z,15.80
2018-05-25T01:57:13.388Z,15.80
2018-05-25T01:59:40.844Z,15.80
2018-05-25T02:02:08.276Z,15.80
2018-05-25T02:04:35.769Z,15.70
2018-05-25T02:07:03.209Z,15.60
2018-05-25T02:09:30.762Z,15.70
2018-05-25T02:11:58.594Z,15.60
2018-05-25T02:14:26.189Z,15.60
2018-05-25T02:16:53.641Z,15.60
2018-05-25T02:19:21.080Z,15.50
2018-05-25T02:21:48.513Z,15.50
2018-05-25T02:24:16.723Z,15.50
2018-05-25T02:26:44.147Z,15.50
2018-05-25T02:29:12.373Z,15.50
2018-05-25T02:31:39.822Z,15.40
2018-05-25T02:34:07.246Z,15.40
2018-05-25T02:36:34.685Z,15.40
2018-05-25T02:39:02.929Z,15.30
2018-05-25T02:41:30.381Z,15.30
2018-05-25T02:43:57.836Z,15.30
2018-05-25T02:46:25.391Z,15.40
2018-05-25T02:48:52.826Z,15.40
2018-05-25T02:51:20.252Z,15.30
2018-05-25T02:53:47.697Z,15.40
2018-05-25T02:56:15.897Z,15.30
2018-05-25T02:58:43.340Z,15.30
2018-05-25T03:01:10.768Z,15.30
2018-05-25T03:03:38.306Z,15.30
2018-05-25T03:06:05.720Z,15.30
2018-05-25T03:08:33.204Z,15.30
2018-05-25T03:11:00.601Z,15.20
2018-05-25T03:13:28.808Z,15.20
2018-05-25T03:15:56.271Z,15.10
2018-05-25T03:18:23.693Z,15.10
2018-05-25T03:20:51.892Z,15.20
2018-05-25T03:23:19.340Z,15.10
2018-05-25T03:25:46.920Z,15.10
2018-05-25T03:28:14.375Z,15.20
2018-05-25T03:30:41.814Z,15.20
2018-05-25T03:33:09.306Z,15.20
2018-05-25T03:35:36.773Z,15.30
2018-05-25T03:38:04.217Z,15.30
2018-05-25T03:40:31.655Z,15.30
2018-05-25T03:42:59.084Z,15.20
2018-05-25T03:45:27.320Z,15.30
2018-05-25T03:47:54.765Z,15.30
2018-05-25T03:50:22.241Z,15.30
2018-05-25T03:52:49.693Z,15.30
2018-05-25T03:55:17.137Z,15.30
2018-05-25T03:57:44.609Z,15.30
2018-05-25T04:00:23.945Z,15.40
2018-05-25T04:02:51.476Z,15.40
2018-05-25T04:05:18.914Z,15.40
2018-05-25T04:07:46.378Z,15.50
2018-05-25T04:10:13.809Z,15.50
2018-05-25T04:12:41.236Z,15.70
2018-05-25T04:15:09.449Z,15.90
2018-05-25T04:17:36.876Z,15.80
2018-05-25T04:20:05.081Z,16.00
2018-05-25T04:22:32.545Z,16.00
2018-05-25T04:24:59.988Z,16.10
2018-05-25T04:27:27.457Z,16.10
2018-05-25T04:29:54.880Z,16.10
2018-05-25T04:32:23.077Z,16.20
2018-05-25T04:34:50.542Z,16.20
2018-05-25T04:37:17.965Z,16.40
2018-05-25T04:39:46.204Z,16.40
2018-05-25T04:42:13.731Z,16.40
2018-05-25T04:44:41.144Z,16.50
2018-05-25T04:47:09.360Z,16.60
2018-05-25T04:49:36.817Z,16.50
2018-05-25T04:52:04.229Z,16.60
2018-05-25T04:54:32.443Z,16.70
2018-05-25T04:56:59.933Z,16.60
2018-05-25T04:59:27.390Z,16.80
2018-05-25T05:01:54.920Z,16.90
2018-05-25T05:04:22.376Z,17.00
2018-05-25T05:06:49.840Z,17.00
2018-05-25T05:09:17.296Z,17.10
2018-05-25T05:11:44.729Z,17.20
2018-05-25T05:14:12.205Z,17.20
2018-05-25T05:16:39.681Z,17.30
2018-05-25T05:19:07.161Z,17.50
2018-05-25T05:21:34.599Z,17.60
2018-05-25T05:24:02.063Z,17.60
2018-05-25T05:26:29.509Z,17.70
2018-05-25T05:28:56.942Z,17.80
2018-05-25T05:31:24.496Z,17.90
2018-05-25T05:33:51.925Z,17.90
2018-05-25T05:36:19.398Z,18.00
2018-05-25T05:38:46.824Z,18.00
2018-05-25T05:41:15.062Z,18.20
2018-05-25T05:43:42.639Z,18.10
2018-05-25T05:46:10.179Z,18.20
2018-05-25T05:48:37.601Z,18.30
2018-05-25T05:51:05.078Z,18.30
2018-05-25T05:53:32.528Z,18.40
2018-05-25T05:56:00.010Z,18.40
2018-05-25T05:58:27.450Z,18.40
2018-05-25T06:00:54.893Z,18.40
2018-05-25T06:03:22.396Z,18.50
2018-05-25T06:05:49.849Z,18.50
2018-05-25T06:08:17.324Z,18.60
2018-05-25T06:10:45.664Z,18.80
2018-05-25T06:13:13.100Z,18.70
2018-05-25T06:15:40.544Z,18.90
2018-05-25T06:18:08.046Z,18.90
2018-05-25T06:20:35.476Z,19.00
2018-05-25T06:23:02.923Z,19.00
2018-05-25T06:25:30.391Z,19.10
2018-05-25T06:27:57.822Z,19.20
2018-05-25T06:30:25.265Z,19.30
2018-05-25T06:32:53.470Z,19.50
2018-05-25T06:35:20.981Z,19.40
2018-05-25T06:37:48.408Z,19.50
2018-05-25T06:40:16.037Z,19.60
2018-05-25T06:42:43.496Z,19.70
2018-05-25T06:45:10.916Z,19.80
2018-05-25T06:47:39.139Z,19.90
2018-05-25T06:50:06.650Z,19.90
2018-05-25T06:52:34.869Z,20.00
2018-05-25T06:55:02.311Z,20.00
2018-05-25T06:57:29.794Z,20.10
2018-05-25T06:59:57.215Z,20.20
2018-05-25T07:02:24.786Z,20.20
2018-05-25T07:04:52.204Z,20.30
2018-05-25T07:07:20.429Z,20.40
2018-05-25T07:09:47.855Z,20.30
2018-05-25T07:12:15.332Z,20.50
2018-05-25T07:14:42.753Z,20.50
2018-05-25T07:17:11.008Z,20.70
2018-05-25T07:19:38.470Z,20.60
2018-05-25T07:22:05.973Z,20.80
2018-05-25T07:24:33.405Z,20.80
2018-05-25T07:27:01.625Z,20.80
2018-05-25T07:29:29.093Z,20.80
2018-05-25T07:31:56.573Z,20.90
2018-05-25T07:34:24.039Z,21.00
2018-05-25T07:36:52.275Z,21.30
2018-05-25T07:39:19.773Z,21.20
2018-05-25T07:41:47.266Z,21.50
2018-05-25T07:44:14.691Z,21.60
2018-05-25T07:46:42.928Z,21.80
2018-05-25T07:49:10.348Z,21.70
2018-05-25T07:51:37.838Z,21.80
2018-05-25T07:54:05.285Z,21.80
2018-05-25T07:56:32.820Z,21.70
2018-05-25T07:59:00.275Z,21.70
2018-05-25T08:01:27.756Z,21.80
2018-05-25T08:03:55.196Z,21.90
2018-05-25T08:06:22.688Z,21.90
2018-05-25T08:08:50.126Z,21.90
2018-05-25T08:11:17.592Z,22.00
2018-05-25T08:13:45.140Z,22.00
2018-05-25T08:16:12.584Z,22.20
2018-05-25T08:18:40.041Z,22.30
2018-05-25T08:21:07.494Z,22.20
2018-05-25T08:23:34.924Z,22.20
2018-05-25T08:26:02.380Z,22.20
2018-05-25T08:28:30.580Z,22.40
2018-05-25T08:30:58.068Z,22.30
2018-05-25T08:33:25.508Z,22.60
2018-05-25T08:35:52.951Z,22.80
2018-05-25T08:38:20.409Z,22.80
2018-05-25T08:40:47.853Z,22.90
2018-05-25T08:43:15.348Z,22.80
2018-05-25T08:45:42.792Z,22.70
2018-05-25T08:48:10.326Z,22.90
2018-05-25T08:50:37.801Z,23.00
2018-05-25T08:53:05.245Z,23.10
2018-05-25T08:55:32.685Z,23.10
2018-05-25T08:58:00.122Z,23.10
2018-05-25T09:00:28.332Z,23.20
2018-05-25T09:02:55.882Z,23.20
2018-05-25T09:05:23.368Z,23.30
2018-05-25T09:07:50.832Z,23.30
2018-05-25T09:10:18.462Z,23.40
2018-05-25T09:12:45.881Z,23.40
2018-05-25T09:15:14.140Z,23.60
2018-05-25T09:17:41.581Z,23.60
2018-05-25T09:20:09.102Z,23.70
2018-05-25T09:22:36.590Z,23.80
2018-05-25T09:25:04.021Z,23.90
2018-05-25T09:27:31.456Z,24.00
2018-05-25T09:29:58.917Z,24.00
2018-05-25T09:32:26.358Z,23.90
2018-05-25T09:34:53.973Z,23.90
2018-05-25T09:37:21.404Z,23.90
2018-05-25T09:39:49.258Z,24.10
2018-05-25T09:42:16.737Z,24.20
2018-05-25T09:44:44.217Z,24.30
2018-05-25T09:47:11.632Z,24.40
2018-05-25T09:49:39.088Z,24.60
2018-05-25T09:52:06.541Z,24.60
2018-05-25T09:54:34.017Z,24.60
2018-05-25T09:57:01.499Z,24.50
2018-05-25T09:59:28.977Z,24.50
2018-05-25T10:01:56.502Z,24.50
2018-05-25T10:04:23.938Z,24.50
2018-05-25T10:06:51.397Z,24.50
2018-05-25T10:09:18.873Z,24.60
2018-05-25T10:11:46.369Z,24.60
2018-05-25T10:14:13.873Z,24.50
2018-05-25T10:16:41.325Z,24.50
2018-05-25T10:19:08.886Z,24.50
2018-05-25T10:21:36.321Z,24.50
2018-05-25T10:24:03.796Z,24.60
2018-05-25T10:26:31.250Z,24.60
2018-05-25T10:28:58.724Z,24.70
2018-05-25T10:31:26.166Z,24.90
2018-05-25T10:33:53.605Z,25.10
2018-05-25T10:36:21.202Z,25.30
2018-05-25T10:38:48.669Z,25.50
2018-05-25T10:41:16.154Z,25.60
2018-05-25T10:43:43.572Z,25.70
2018-05-25T10:46:11.104Z,25.80
2018-05-25T10:48:38.582Z,25.70
2018-05-25T10:51:05.999Z,25.70
2018-05-25T10:53:33.578Z,25.70
2018-05-25T10:56:01.075Z,25.40
2018-05-25T10:58:28.456Z,25.50
2018-05-25T11:00:56.663Z,25.60
2018-05-25T11:03:24.141Z,25.60
2018-05-25T11:05:51.618Z,25.70
2018-05-25T11:08:19.064Z,25.80
2018-05-25T11:10:46.589Z,25.80
2018-05-25T11:13:14.021Z,25.70
2018-05-25T11:15:41.460Z,25.70
2018-05-25T11:18:08.933Z,25.70
2018-05-25T11:20:36.517Z,25.70
2018-05-25T11:23:03.996Z,25.80
2018-05-25T11:25:31.457Z,25.80
2018-05-25T11:27:58.888Z,25.80
2018-05-25T11:30:26.339Z,25.90
2018-05-25T11:32:53.772Z,25.90
2018-05-25T11:35:21.257Z,25.90
2018-05-25T11:37:48.717Z,25.80
2018-05-25T11:40:16.154Z,25.70
2018-05-25T11:42:43.612Z,25.80
2018-05-25T11:45:11.093Z,26.00
2018-05-25T11:47:38.511Z,26.20
2018-05-25T11:50:06.744Z,26.00
2018-05-25T11:52:34.199Z,25.90
2018-05-25T11:55:01.658Z,25.90
2018-05-25T11:57:29.115Z,26.00
2018-05-25T11:59:57.505Z,26.00
2018-05-25T12:02:24.956Z,26.00
2018-05-25T12:04:52.392Z,26.10
2018-05-25T12:07:19.861Z,26.10
2018-05-25T12:09:47.302Z,26.10
2018-05-25T12:12:14.741Z,26.20
2018-05-25T12:14:42.305Z,26.20
2018-05-25T12:17:09.729Z,26.20
2018-05-25T12:19:37.164Z,26.50
2018-05-25T12:22:05.387Z,26.60
2018-05-25T12:24:32.841Z,26.50
2018-05-25T12:27:00.324Z,26.50
2018-05-25T12:29:27.764Z,26.60
2018-05-25T12:31:55.214Z,26.60
2018-05-25T12:34:22.647Z,26.40
2018-05-25T12:36:50.144Z,26.30
2018-05-25T12:39:17.602Z,26.40
2018-05-25T12:41:45.031Z,26.70
2018-05-25T12:44:12.569Z,26.80
2018-05-25T12:46:40.029Z,26.90
2018-05-25T12:49:08.245Z,26.80
2018-05-25T12:51:35.672Z,26.80
2018-05-25T12:54:03.228Z,26.90
2018-05-25T12:56:30.669Z,26.80
2018-05-25T12:58:58.900Z,26.80
2018-05-25T13:01:26.370Z,26.80
2018-05-25T13:03:53.884Z,26.90
2018-05-25T13:06:21.318Z,26.90
2018-05-25T13:08:48.752Z,26.80
2018-05-25T13:11:17.071Z,26.50
2018-05-25T13:13:44.496Z,26.40
2018-05-25T13:16:12.710Z,25.90
2018-05-25T13:18:40.260Z,25.90
2018-05-25T13:21:07.689Z,25.90
2018-05-25T13:23:35.188Z,25.80
2018-05-25T13:26:02.662Z,25.80
2018-05-25T13:28:30.096Z,25.90
2018-05-25T13:30:57.564Z,26.00
2018-05-25T13:33:25.100Z,26.10
2018-05-25T13:35:52.542Z,25.90
2018-05-25T13:38:20.026Z,25.80
2018-05-25T13:40:47.455Z,25.70
2018-05-25T13:43:14.929Z,25.70
2018-05-25T13:45:42.414Z,25.70
2018-05-25T13:48:10.044Z,25.70
2018-05-25T13:50:37.535Z,25.80
2018-05-25T13:53:05.073Z,25.90
2018-05-25T13:55:32.500Z,26.00
2018-05-25T13:57:59.945Z,25.90
2018-05-25T14:00:27.436Z,25.90
2018-05-25T14:02:54.892Z,26.00
2018-05-25T14:05:22.450Z,25.90
2018-05-25T14:07:49.948Z,25.70
2018-05-25T14:10:17.408Z,25.70
2018-05-25T14:12:44.848Z,25.70
2018-05-25T14:15:13.897Z,25.50
2018-05-25T14:17:41.387Z,25.40
2018-05-25T14:20:08.842Z,25.40
2018-05-25T14:22:36.264Z,25.30
2018-05-25T14:25:03.745Z,25.30
2018-05-25T14:27:31.199Z,25.30
2018-05-25T14:29:58.644Z,25.30
2018-05-25T14:32:26.072Z,25.20
2018-05-25T14:34:53.562Z,25.10
2018-05-25T14:37:21.012Z,25.10
2018-05-25T14:39:48.480Z,25.10
2018-05-25T14:42:15.945Z,25.10
2018-05-25T14:44:43.491Z,25.10
2018-05-25T14:47:10.931Z,25.20
2018-05-25T14:49:39.156Z,25.20
2018-05-25T14:52:06.633Z,25.20
2018-05-25T14:54:34.052Z,25.40
2018-05-25T14:57:01.593Z,25.40
2018-05-25T14:59:29.014Z,25.40
2018-05-25T15:01:57.416Z,25.40
2018-05-25T15:04:24.918Z,25.40
2018-05-25T15:06:52.444Z,25.20
2018-05-25T15:09:19.934Z,25.10
2018-05-25T15:11:47.383Z,25.10
2018-05-25T15:14:14.883Z,25.20
2018-05-25T15:16:43.152Z,26.60
2018-05-25T15:19:11.579Z,27.30
2018-05-25T15:21:39.006Z,27.20
2018-05-25T15:24:06.431Z,27.90
2018-05-25T15:26:34.644Z,29.50
2018-05-25T15:29:02.076Z,29.50
2018-05-25T15:31:30.269Z,30.20
2018-05-25T15:33:57.759Z,30.10
2018-05-25T15:36:25.292Z,30.50
2018-05-25T15:38:52.725Z,30.30
2018-05-25T15:41:20.167Z,30.70
2018-05-25T15:43:48.357Z,30.70
2018-05-25T15:46:15.909Z,30.60
2018-05-25T15:48:43.346Z,30.20
2018-05-25T15:51:11.575Z,30.20
2018-05-25T15:53:38.992Z,30.10
2018-05-25T15:56:07.245Z,30.10
2018-05-25T15:58:34.697Z,30.00
2018-05-25T16:01:02.149Z,30.00
2018-05-25T16:03:29.585Z,29.70
2018-05-25T16:05:57.053Z,29.50
2018-05-25T16:08:24.582Z,29.80
2018-05-25T16:10:52.013Z,29.90
2018-05-25T16:13:19.445Z,29.90
2018-05-25T16:15:47.695Z,30.40
2018-05-25T16:18:15.146Z,30.40
2018-05-25T16:20:42.679Z,30.50
2018-05-25T16:23:10.143Z,30.30
2018-05-25T16:25:37.576Z,29.80
2018-05-25T16:28:05.081Z,27.60
2018-05-25T16:30:32.562Z,28.90
2018-05-25T16:33:00.027Z,27.90
2018-05-25T16:35:28.212Z,27.60
2018-05-25T16:37:55.724Z,27.50
2018-05-25T16:40:23.279Z,27.70
2018-05-25T16:42:50.705Z,27.80
2018-05-25T16:45:18.296Z,27.70
2018-05-25T16:47:45.725Z,28.10
2018-05-25T16:50:13.201Z,28.50
2018-05-25T16:52:40.605Z,28.10
2018-05-25T16:55:08.845Z,27.20
2018-05-25T16:57:36.312Z,27.10
2018-05-25T17:00:03.764Z,26.50
2018-05-25T17:02:31.316Z,25.90
2018-05-25T17:04:58.851Z,25.80
2018-05-25T17:07:27.014Z,25.50
2018-05-25T17:09:54.474Z,25.40
2018-05-25T17:12:22.028Z,25.00
2018-05-25T17:14:49.474Z,24.60
2018-05-25T17:17:16.932Z,24.10
2018-05-25T17:19:44.412Z,23.70
2018-05-25T17:22:11.868Z,23.50
2018-05-25T17:24:39.321Z,23.40
2018-05-25T17:27:06.793Z,23.10
2018-05-25T17:29:34.284Z,22.90
2018-05-25T17:32:01.724Z,22.80
2018-05-25T17:34:30.797Z,22.60
2018-05-25T17:36:58.304Z,22.50
2018-05-25T17:39:25.745Z,22.50
2018-05-25T17:41:53.192Z,22.40
2018-05-25T17:44:20.720Z,22.20
2018-05-25T17:46:48.185Z,22.10
2018-05-25T17:49:16.417Z,21.90
2018-05-25T17:51:43.861Z,21.80
2018-05-25T17:54:12.139Z,21.60
2018-05-25T17:56:40.346Z,21.40
2018-05-25T17:59:08.787Z,21.40
2018-05-25T18:01:37.102Z,21.20
2018-05-25T18:04:04.533Z,21.20
2018-05-25T18:06:31.965Z,21.20
2018-05-25T18:09:00.190Z,21.10
2018-05-25T18:11:27.616Z,21.10
2018-05-25T18:13:55.054Z,21.00
2018-05-25T18:16:23.258Z,20.90
2018-05-25T18:18:50.701Z,20.80
2018-05-25T18:21:18.135Z,20.80
2018-05-25T18:23:45.584Z,20.70
2018-05-25T18:26:13.103Z,20.50
2018-05-25T18:28:40.569Z,20.50
2018-05-25T18:31:08.133Z,20.40
2018-05-25T18:33:35.634Z,20.40
2018-05-25T18:36:03.847Z,20.30
2018-05-25T18:38:31.300Z,20.20
2018-05-25T18:40:58.736Z,20.20
2018-05-25T18:43:26.190Z,20.20
2018-05-25T18:45:53.621Z,20.10
2018-05-25T18:48:21.824Z,20.00
2018-05-25T18:50:49.313Z,20.00
2018-05-25T18:53:16.780Z,20.00
2018-05-25T18:55:44.332Z,19.90
2018-05-25T18:58:11.807Z,19.90
2018-05-25T19:00:39.435Z,19.80
2018-05-25T19:03:06.955Z,19.80
2018-05-25T19:05:35.160Z,19.70
2018-05-25T19:08:02.613Z,19.60
2018-05-25T19:10:30.031Z,19.70
2018-05-25T19:12:58.244Z,19.40
2018-05-25T19:15:25.723Z,19.40
2018-05-25T19:17:53.169Z,19.40
2018-05-25T19:20:20.640Z,19.30
2018-05-25T19:22:48.156Z,19.30
2018-05-25T19:25:16.347Z,19.20
2018-05-25T19:27:43.803Z,19.20
2018-05-25T19:30:11.247Z,19.20
2018-05-25T19:32:38.711Z,19.10
2018-05-25T19:35:06.171Z,19.10
2018-05-25T19:37:33.652Z,19.00
2018-05-25T19:40:01.106Z,19.00
2018-05-25T19:42:28.554Z,19.00
2018-05-25T19:44:56.064Z,18.90
2018-05-25T19:47:23.604Z,18.80
2018-05-25T19:49:51.223Z,16.50
2018-05-25T19:52:18.676Z,18.70
2018-05-25T19:54:46.229Z,18.70
2018-05-25T19:57:13.733Z,18.60
2018-05-25T19:59:41.168Z,18.50
2018-05-25T20:02:08.623Z,18.90
2018-05-25T20:04:36.163Z,18.40
2018-05-25T20:07:03.676Z,18.40
2018-05-25T20:09:31.148Z,18.30
2018-05-25T20:12:00.356Z,18.20
2018-05-25T20:14:27.809Z,18.20
2018-05-25T20:16:55.315Z,18.20
2018-05-25T20:19:22.788Z,18.20
2018-05-25T20:21:50.233Z,18.10
2018-05-25T20:24:17.671Z,18.20
2018-05-25T20:26:45.201Z,18.20
2018-05-25T20:29:12.727Z,18.00
2018-05-25T20:31:40.275Z,18.00
2018-05-25T20:34:07.744Z,18.00
2018-05-25T20:36:35.270Z,17.90
2018-05-25T20:39:02.731Z,17.90
2018-05-25T20:41:30.180Z,17.90
2018-05-25T20:43:57.646Z,17.70
2018-05-25T20:46:25.114Z,17.70
2018-05-25T20:48:52.554Z,17.70
2018-05-25T20:51:19.984Z,17.70
2018-05-25T20:53:47.432Z,17.60
2018-05-25T20:56:14.858Z,17.50
2018-05-25T20:58:43.053Z,17.40
2018-05-25T21:01:10.554Z,17.40
2018-05-25T21:03:38.008Z,17.40
2018-05-25T21:06:05.464Z,17.40
2018-05-25T21:08:33.050Z,17.40
2018-05-25T21:11:00.537Z,17.30
2018-05-25T21:13:27.975Z,17.20
2018-05-25T21:15:56.168Z,17.10
2018-05-25T21:18:23.650Z,17.00
2018-05-25T21:20:51.102Z,17.00
2018-05-25T21:23:18.551Z,17.00
2018-05-25T21:25:45.985Z,16.90
2018-05-25T21:28:14.196Z,16.90
2018-05-25T21:30:41.740Z,16.90
2018-05-25T21:33:09.160Z,16.90
2018-05-25T21:35:37.366Z,16.90
2018-05-25T21:38:05.036Z,16.80
2018-05-25T21:40:32.455Z,16.90
2018-05-25T21:42:59.952Z,16.80
2018-05-25T21:45:27.395Z,16.70
2018-05-25T21:47:54.821Z,16.60
2018-05-25T21:50:23.133Z,16.50
2018-05-25T21:52:50.620Z,16.50
2018-05-25T21:55:18.151Z,16.50
2018-05-25T21:57:45.573Z,16.40
2018-05-25T22:00:13.797Z,16.30
2018-05-25T22:02:41.236Z,16.20
2018-05-25T22:05:08.668Z,16.20
2018-05-25T22:07:36.757Z,16.20
2018-05-25T22:10:04.228Z,16.20
2018-05-25T22:12:31.666Z,16.10
2018-05-25T22:14:59.160Z,16.10
2018-05-25T22:17:26.606Z,16.10
2018-05-25T22:19:54.081Z,16.00
2018-05-25T22:22:21.519Z,16.00
2018-05-25T22:24:48.968Z,16.00
2018-05-25T22:27:16.411Z,15.90
2018-05-25T22:29:43.833Z,15.80
2018-05-25T22:32:12.038Z,15.80
2018-05-25T22:34:39.476Z,15.70
2018-05-25T22:37:07.057Z,15.70
2018-05-25T22:39:34.576Z,15.60
2018-05-25T22:42:01.582Z,15.70
2018-05-25T22:44:40.940Z,15.70
2018-05-25T22:47:20.330Z,15.60
2018-05-25T22:49:59.784Z,15.70
2018-05-25T22:52:32.447Z,15.70
2018-05-25T22:55:00.001Z,15.70
2018-05-25T22:57:27.446Z,15.60
2018-05-25T22:59:54.880Z,15.60
2018-05-25T23:02:23.086Z,15.40
2018-05-25T23:04:50.649Z,15.40
2018-05-25T23:07:18.105Z,15.40
2018-05-25T23:09:45.549Z,15.30
2018-05-25T23:12:13.036Z,15.30
2018-05-25T23:14:40.481Z,15.30
2018-05-25T23:17:07.922Z,15.30
2018-05-25T23:19:35.348Z,15.20
2018-05-25T23:22:03.592Z,15.20
2018-05-25T23:24:31.045Z,15.10
2018-05-25T23:26:58.586Z,15.20
2018-05-25T23:29:26.059Z,15.20
2018-05-25T23:31:54.512Z,15.10
2018-05-25T23:34:21.984Z,15.10
2018-05-25T23:36:49.449Z,15.10
2018-05-25T23:39:16.892Z,15.00
2018-05-25T23:41:44.344Z,15.00
2018-05-25T23:44:11.790Z,14.90
2018-05-25T23:46:39.240Z,14.90
2018-05-25T23:49:06.664Z,14.90
2018-05-25T23:51:34.895Z,14.90
2018-05-25T23:54:02.429Z,14.90
2018-05-25T23:56:29.868Z,14.90
2018-05-25T23:58:57.305Z,14.90
